createdAt,value
2019-05-03T00:02:04.663Z,12.05
2019-05-03T00:04:33.066Z,12.43
2019-05-03T00:07:02.734Z,11.40
2019-05-03T00:09:32.018Z,10.68
2019-05-03T00:12:01.899Z,12.80
2019-05-03T00:14:32.376Z,19.48
2019-05-03T00:17:02.254Z,14.45
2019-05-03T00:19:32.601Z,9.93
2019-05-03T00:22:02.084Z,11.22
2019-05-03T00:24:32.122Z,12.45
2019-05-03T00:27:01.988Z,12.63
2019-05-03T00:29:32.361Z,11.90
2019-05-03T00:32:01.906Z,11.73
2019-05-03T00:34:47.480Z,16.15
2019-05-03T00:37:23.557Z,13.20
2019-05-03T00:40:04.697Z,12.05
2019-05-03T00:45:02.301Z,16.23
2019-05-03T00:47:32.861Z,15.85
2019-05-03T00:50:02.829Z,14.60
2019-05-03T00:52:31.907Z,14.37
2019-05-03T00:55:02.232Z,14.90
2019-05-03T00:57:32.287Z,14.55
2019-05-03T01:00:02.041Z,17.12
2019-05-03T01:02:31.811Z,16.45
2019-05-03T01:05:02.661Z,14.60
2019-05-03T01:07:31.887Z,15.68
2019-05-03T01:10:02.730Z,13.18
2019-05-03T01:12:32.358Z,13.05
2019-05-03T01:15:02.639Z,16.20
2019-05-03T01:17:31.918Z,12.88
2019-05-03T01:20:02.531Z,15.32
2019-05-03T01:22:32.190Z,15.13
2019-05-03T01:25:02.633Z,13.05
2019-05-03T01:27:32.551Z,17.42
2019-05-03T01:30:02.883Z,16.10
2019-05-03T01:32:32.902Z,19.77
2019-05-03T01:35:03.174Z,14.63
2019-05-03T01:37:32.034Z,14.87
2019-05-03T01:40:02.213Z,17.75
2019-05-03T01:42:32.132Z,14.45
2019-05-03T01:45:01.757Z,18.02
2019-05-03T01:48:06.841Z,17.23
2019-05-03T01:50:36.890Z,18.60
2019-05-03T01:53:13.517Z,17.95
2019-05-03T01:55:49.246Z,17.77
2019-05-03T01:58:17.701Z,14.23
2019-05-03T02:00:46.133Z,14.28
2019-05-03T02:03:16.202Z,15.20
2019-05-03T02:05:46.239Z,17.92
2019-05-03T02:08:14.667Z,18.67
2019-05-03T02:10:43.772Z,20.32
2019-05-03T02:13:12.346Z,17.00
2019-05-03T02:15:42.214Z,20.60
2019-05-03T02:18:14.749Z,19.48
2019-05-03T02:20:41.813Z,17.62
2019-05-03T02:23:11.909Z,17.50
2019-05-03T02:25:42.012Z,16.95
2019-05-03T02:28:12.619Z,17.62
2019-05-03T02:30:44.089Z,18.60
2019-05-03T02:33:13.413Z,16.03
2019-05-03T02:35:43.025Z,19.63
2019-05-03T02:38:13.069Z,16.17
2019-05-03T02:40:42.940Z,18.73
2019-05-03T02:43:25.596Z,20.23
2019-05-03T02:45:57.348Z,20.17
2019-05-03T02:48:30.207Z,16.02
2019-05-03T02:50:58.741Z,20.17
2019-05-03T02:53:27.217Z,16.15
2019-05-03T02:55:57.611Z,17.50
2019-05-03T02:58:25.775Z,16.73
2019-05-03T03:01:00.221Z,19.30
2019-05-03T03:03:30.164Z,19.12
2019-05-03T03:06:00.430Z,15.53
2019-05-03T03:08:33.274Z,16.07
2019-05-03T03:11:06.286Z,17.40
2019-05-03T03:13:36.955Z,13.72
2019-05-03T03:16:09.920Z,15.53
2019-05-03T03:18:40.165Z,18.02
2019-05-03T03:21:20.287Z,15.15
2019-05-03T03:24:01.030Z,16.97
2019-05-03T03:26:37.591Z,17.13
2019-05-03T03:29:05.623Z,13.80
2019-05-03T03:31:51.975Z,15.63
2019-05-03T03:34:28.136Z,15.95
2019-05-03T03:37:04.223Z,15.72
2019-05-03T03:39:26.403Z,16.35
2019-05-03T03:41:56.065Z,16.20
2019-05-03T03:44:25.737Z,15.58
2019-05-03T03:46:56.188Z,15.70
2019-05-03T03:49:26.489Z,14.75
2019-05-03T03:51:56.326Z,15.15
2019-05-03T03:54:26.004Z,14.03
2019-05-03T03:57:03.365Z,13.62
2019-05-03T03:59:27.014Z,11.43
2019-05-03T04:01:55.807Z,13.68
2019-05-03T04:04:26.055Z,13.00
2019-05-03T04:06:58.507Z,17.43
2019-05-03T04:09:25.788Z,13.70
2019-05-03T04:11:56.838Z,11.60
2019-05-03T04:14:27.043Z,13.87
2019-05-03T04:17:00.835Z,12.43
2019-05-03T04:19:36.341Z,13.03
2019-05-03T04:22:05.849Z,13.32
2019-05-03T04:24:35.294Z,14.30
2019-05-03T04:27:18.513Z,11.95
2019-05-03T04:29:37.885Z,15.90
2019-05-03T04:32:08.106Z,11.25
2019-05-03T04:34:36.589Z,14.13
2019-05-03T04:37:05.668Z,15.93
2019-05-03T04:39:35.907Z,14.60
2019-05-03T04:42:06.686Z,15.23
2019-05-03T04:44:35.934Z,13.40
2019-05-03T04:47:06.834Z,12.33
2019-05-03T04:49:36.287Z,14.13
2019-05-03T04:52:05.827Z,10.90
2019-05-03T04:54:36.494Z,12.47
2019-05-03T04:57:06.571Z,11.65
2019-05-03T04:59:35.871Z,10.47
2019-05-03T05:02:06.112Z,14.15
2019-05-03T05:04:35.707Z,10.43
2019-05-03T05:07:06.125Z,12.15
2019-05-03T05:09:35.105Z,13.53
2019-05-03T05:12:05.657Z,14.53
2019-05-03T05:14:35.221Z,12.85
2019-05-03T05:17:06.170Z,17.37
2019-05-03T05:19:38.469Z,14.20
2019-05-03T05:22:08.617Z,14.38
2019-05-03T05:24:37.045Z,12.33
2019-05-03T05:27:09.697Z,11.30
2019-05-03T05:29:41.890Z,10.35
2019-05-03T05:32:10.378Z,11.78
2019-05-03T05:34:38.793Z,15.48
2019-05-03T05:37:07.217Z,14.03
2019-05-03T05:39:36.350Z,11.78
2019-05-03T05:42:04.771Z,13.30
2019-05-03T05:44:35.099Z,13.55
2019-05-03T05:47:15.000Z,16.10
2019-05-03T05:49:45.162Z,12.65
2019-05-03T05:52:15.389Z,13.48
2019-05-03T05:54:45.786Z,14.03
2019-05-03T05:57:25.598Z,16.03
2019-05-03T05:59:58.871Z,15.20
2019-05-03T06:02:27.304Z,16.00
2019-05-03T06:04:55.702Z,14.28
2019-05-03T06:07:35.145Z,10.18
2019-05-03T06:10:06.845Z,16.85
2019-05-03T06:12:36.903Z,12.85
2019-05-03T06:15:14.994Z,13.47
2019-05-03T06:17:47.838Z,13.55
2019-05-03T06:20:24.600Z,13.75
2019-05-03T06:22:54.991Z,16.12
2019-05-03T06:25:26.524Z,16.80
2019-05-03T06:27:55.326Z,16.60
2019-05-03T06:30:25.377Z,18.77
2019-05-03T06:32:55.127Z,17.90
2019-05-03T06:35:24.398Z,15.55
2019-05-03T06:37:54.598Z,15.90
2019-05-03T06:40:25.149Z,15.72
2019-05-03T06:42:55.630Z,13.40
2019-05-03T06:45:25.080Z,11.00
2019-05-03T06:47:55.115Z,11.60
2019-05-03T06:50:27.222Z,10.60
2019-05-03T06:52:54.801Z,12.40
2019-05-03T06:55:24.748Z,12.00
2019-05-03T06:57:54.575Z,11.25
2019-05-03T07:00:35.085Z,11.13
2019-05-03T07:03:08.345Z,8.30
2019-05-03T07:05:38.424Z,10.15
2019-05-03T07:08:25.346Z,9.68
2019-05-03T07:10:55.717Z,10.98
2019-05-03T07:13:25.452Z,8.78
2019-05-03T07:15:56.020Z,10.03
2019-05-03T07:18:24.721Z,7.25
2019-05-03T07:20:56.917Z,9.73
2019-05-03T07:25:55.033Z,9.05
2019-05-03T07:28:24.776Z,6.60
2019-05-03T07:30:54.416Z,8.43
2019-05-03T07:33:25.413Z,8.55
2019-05-03T07:35:54.772Z,8.03
2019-05-03T07:38:24.860Z,7.80
2019-05-03T07:40:54.939Z,8.38
2019-05-03T07:43:24.542Z,9.18
2019-05-03T07:45:55.216Z,8.43
2019-05-03T07:48:25.440Z,6.83
2019-05-03T07:50:54.647Z,9.57
2019-05-03T07:53:25.226Z,8.23
2019-05-03T07:55:57.885Z,10.23
2019-05-03T07:58:30.390Z,5.90
2019-05-03T08:01:06.194Z,8.58
2019-05-03T08:03:30.631Z,7.55
2019-05-03T08:05:59.082Z,6.65
2019-05-03T08:08:27.563Z,3.70
2019-05-03T08:10:55.998Z,5.97
2019-05-03T08:13:25.353Z,7.72
2019-05-03T08:15:55.729Z,5.80
2019-05-03T08:18:25.718Z,6.20
2019-05-03T08:20:55.682Z,4.43
2019-05-03T08:23:30.010Z,6.85
2019-05-03T08:25:55.804Z,5.08
2019-05-03T08:28:24.621Z,4.28
2019-05-03T08:30:54.848Z,3.98
2019-05-03T08:33:27.646Z,4.08
2019-05-03T08:35:56.426Z,6.08
2019-05-03T08:38:25.807Z,3.83
2019-05-03T08:40:56.003Z,4.25
2019-05-03T08:43:25.517Z,5.00
2019-05-03T08:45:55.397Z,4.40
2019-05-03T08:48:24.995Z,4.50
2019-05-03T08:50:55.450Z,4.62
2019-05-03T08:53:25.638Z,6.00
2019-05-03T08:55:55.253Z,4.45
2019-05-03T08:58:25.605Z,6.28
2019-05-03T09:00:54.708Z,3.07
2019-05-03T09:03:24.895Z,4.92
2019-05-03T09:05:56.243Z,3.70
2019-05-03T09:08:24.908Z,4.33
2019-05-03T09:10:58.062Z,5.40
2019-05-03T09:13:28.124Z,6.85
2019-05-03T09:15:56.657Z,4.55
2019-05-03T09:18:25.831Z,4.00
2019-05-03T09:20:55.533Z,6.75
2019-05-03T09:23:26.040Z,4.58
2019-05-03T09:25:54.742Z,3.33
2019-05-03T09:28:25.699Z,6.10
2019-05-03T09:30:55.045Z,3.95
2019-05-03T09:33:24.879Z,7.78
2019-05-03T09:35:54.951Z,6.10
2019-05-03T09:38:25.484Z,8.20
2019-05-03T09:40:54.570Z,5.75
2019-05-03T09:43:24.916Z,4.10
2019-05-03T09:45:54.686Z,4.13
2019-05-03T09:48:25.257Z,4.58
2019-05-03T09:50:55.434Z,6.47
2019-05-03T09:53:25.654Z,6.28
2019-05-03T09:55:55.546Z,5.50
2019-05-03T09:58:26.184Z,10.38
2019-05-03T10:00:55.510Z,5.50
2019-05-03T10:03:24.121Z,5.40
2019-05-03T10:05:52.525Z,5.80
2019-05-03T10:08:21.074Z,4.83
2019-05-03T10:11:07.456Z,5.85
2019-05-03T10:13:35.948Z,4.85
2019-05-03T10:16:06.061Z,7.03
2019-05-03T10:18:35.970Z,4.47
2019-05-03T10:21:05.438Z,4.78
2019-05-03T10:23:35.946Z,5.30
2019-05-03T10:26:05.747Z,4.87
2019-05-03T10:28:34.149Z,5.47
2019-05-03T10:31:05.548Z,4.62
2019-05-03T10:33:49.761Z,6.08
2019-05-03T10:36:18.188Z,5.85
2019-05-03T10:38:46.618Z,5.92
2019-05-03T10:41:15.074Z,5.45
2019-05-03T10:43:45.125Z,5.33
2019-05-03T10:46:15.712Z,4.55
2019-05-03T10:48:45.109Z,4.47
2019-05-03T10:51:15.690Z,4.28
2019-05-03T10:53:48.273Z,7.62
2019-05-03T10:56:22.618Z,4.50
2019-05-03T10:58:56.084Z,4.17
2019-05-03T11:01:29.299Z,4.80
2019-05-03T11:03:57.710Z,6.17
2019-05-03T11:06:26.114Z,4.77
2019-05-03T11:08:54.683Z,4.47
2019-05-03T11:11:23.127Z,12.82
2019-05-03T11:13:51.549Z,5.28
2019-05-03T11:16:19.940Z,6.03
2019-05-03T11:18:48.361Z,6.28
2019-05-03T11:21:27.834Z,6.15
2019-05-03T11:23:47.023Z,4.03
2019-05-03T11:26:15.506Z,6.12
2019-05-03T11:28:44.866Z,6.28
2019-05-03T11:31:31.599Z,5.55
2019-05-03T11:34:01.668Z,7.58
2019-05-03T11:36:31.937Z,4.58
2019-05-03T11:39:00.754Z,6.17
2019-05-03T11:41:32.877Z,6.85
2019-05-03T11:44:02.608Z,5.58
2019-05-03T11:46:31.045Z,6.03
2019-05-03T11:48:59.515Z,5.33
2019-05-03T11:51:27.934Z,8.35
2019-05-03T11:53:56.330Z,7.62
2019-05-03T11:56:25.421Z,5.26
2019-05-03T11:58:54.995Z,6.10
2019-05-03T12:01:25.641Z,7.12
2019-05-03T12:03:55.570Z,4.83
2019-05-03T12:06:24.941Z,5.70
2019-05-03T12:08:55.253Z,5.90
2019-05-03T12:11:24.438Z,5.20
2019-05-03T12:14:02.404Z,6.50
2019-05-03T12:16:59.881Z,7.67
2019-05-03T12:18:55.569Z,8.20
2019-05-03T12:21:27.173Z,6.00
2019-05-03T12:23:56.544Z,6.22
2019-05-03T12:26:25.998Z,7.20
2019-05-03T12:28:54.786Z,7.55
2019-05-03T12:31:31.838Z,6.55
2019-05-03T12:33:55.103Z,6.53
2019-05-03T12:36:24.771Z,9.60
2019-05-03T12:38:54.821Z,7.72
2019-05-03T12:41:25.363Z,5.10
2019-05-03T12:43:55.165Z,7.03
2019-05-03T12:46:23.705Z,5.17
2019-05-03T12:48:52.392Z,8.00
2019-05-03T12:51:20.803Z,5.03
2019-05-03T12:53:49.215Z,9.88
2019-05-03T12:56:23.387Z,6.97
2019-05-03T12:58:49.438Z,6.15
2019-05-03T13:01:19.495Z,7.10
2019-05-03T13:03:49.527Z,7.05
2019-05-03T13:06:17.939Z,6.97
2019-05-03T13:08:46.340Z,6.25
2019-05-03T13:11:14.760Z,7.97
2019-05-03T13:13:45.244Z,7.78
2019-05-03T13:16:15.389Z,9.13
2019-05-03T13:18:45.815Z,6.10
2019-05-03T13:21:14.046Z,6.33
2019-05-03T13:23:42.441Z,7.70
2019-05-03T13:26:11.308Z,8.73
2019-05-03T13:28:39.710Z,7.87
2019-05-03T13:31:08.199Z,7.08
2019-05-03T13:33:36.738Z,8.98
2019-05-03T13:36:05.536Z,7.47
2019-05-03T13:38:35.018Z,9.28
2019-05-03T13:41:06.213Z,8.70
2019-05-03T13:43:34.797Z,6.62
2019-05-03T13:46:05.192Z,7.45
2019-05-03T13:48:42.548Z,8.08
2019-05-03T13:51:05.244Z,7.53
2019-05-03T13:53:34.848Z,6.92
2019-05-03T13:56:04.714Z,5.55
2019-05-03T13:58:35.596Z,6.05
2019-05-03T14:01:05.511Z,8.60
2019-05-03T14:03:35.335Z,6.13
2019-05-03T14:06:08.359Z,5.72
2019-05-03T14:08:35.003Z,8.37
2019-05-03T14:11:05.050Z,7.92
2019-05-03T14:13:35.401Z,5.92
2019-05-03T14:16:05.729Z,10.48
2019-05-03T14:18:35.315Z,8.50
2019-05-03T14:21:08.558Z,8.08
2019-05-03T14:23:55.225Z,6.60
2019-05-03T14:26:24.577Z,8.33
2019-05-03T14:28:54.829Z,8.43
2019-05-03T14:31:25.245Z,9.47
2019-05-03T14:33:55.639Z,6.33
2019-05-03T14:36:25.128Z,7.85
2019-05-03T14:38:54.883Z,7.60
2019-05-03T14:41:25.423Z,8.08
2019-05-03T14:43:55.678Z,10.03
2019-05-03T14:46:32.563Z,8.15
2019-05-03T14:48:54.986Z,8.18
2019-05-03T14:51:25.218Z,8.18
2019-05-03T14:53:54.255Z,5.47
2019-05-03T14:56:34.833Z,7.20
2019-05-03T14:59:10.693Z,7.00
2019-05-03T15:01:46.727Z,8.60
2019-05-03T15:04:15.217Z,11.22
2019-05-03T15:06:45.863Z,7.90
2019-05-03T15:09:16.930Z,7.10
2019-05-03T15:11:45.312Z,7.42
2019-05-03T15:14:14.546Z,7.53
2019-05-03T15:16:44.906Z,5.42
2019-05-03T15:19:14.810Z,8.33
2019-05-03T15:21:45.161Z,6.83
2019-05-03T15:24:14.535Z,5.50
2019-05-03T15:26:44.747Z,8.25
2019-05-03T15:29:15.418Z,6.97
2019-05-03T15:31:44.733Z,7.20
2019-05-03T15:34:15.103Z,6.90
2019-05-03T15:36:45.061Z,6.00
2019-05-03T15:39:15.396Z,7.47
2019-05-03T15:41:44.935Z,8.23
2019-05-03T15:44:15.153Z,9.58
2019-05-03T15:46:45.202Z,9.15
2019-05-03T15:49:15.214Z,8.80
2019-05-03T15:51:44.594Z,4.72
2019-05-03T15:54:15.205Z,6.67
2019-05-03T15:56:44.786Z,4.80
2019-05-03T15:59:14.868Z,7.87
2019-05-03T16:01:43.429Z,5.05
2019-05-03T16:04:11.842Z,5.97
2019-05-03T16:06:40.264Z,8.05
2019-05-03T16:09:08.648Z,7.03
2019-05-03T16:11:37.056Z,5.75
2019-05-03T16:14:05.466Z,6.60
2019-05-03T16:16:35.360Z,4.87
2019-05-03T16:19:05.450Z,5.95
2019-05-03T16:21:34.117Z,7.28
2019-05-03T16:24:04.981Z,5.95
2019-05-03T16:26:35.493Z,6.22
2019-05-03T16:29:14.966Z,7.60
2019-05-03T16:31:44.960Z,5.62
2019-05-03T16:34:13.149Z,7.20
2019-05-03T16:36:41.211Z,8.95
2019-05-03T16:39:09.528Z,8.43
2019-05-03T16:41:37.648Z,14.58
2019-05-03T16:44:06.073Z,17.87
2019-05-03T16:46:34.555Z,11.53
2019-05-03T16:49:04.511Z,9.18
2019-05-03T16:51:34.948Z,9.53
2019-05-03T16:54:03.642Z,8.50
2019-05-03T16:56:35.104Z,10.32
2019-05-03T16:59:02.947Z,9.17
2019-05-03T17:01:31.358Z,8.05
2019-05-03T17:04:01.410Z,9.30
2019-05-03T17:06:39.309Z,7.75
2019-05-03T17:09:16.015Z,9.33
2019-05-03T17:11:46.074Z,8.05
2019-05-03T17:14:15.517Z,7.12
2019-05-03T17:16:45.069Z,8.23
2019-05-03T17:19:14.743Z,10.25
2019-05-03T17:21:45.308Z,10.93
2019-05-03T17:24:15.482Z,9.90
2019-05-03T17:26:44.377Z,7.85
2019-05-03T17:29:12.993Z,8.68
2019-05-03T17:31:41.398Z,9.60
2019-05-03T17:34:09.801Z,7.28
2019-05-03T17:36:38.225Z,9.63
2019-05-03T17:39:08.808Z,8.00
2019-05-03T17:41:56.842Z,11.50
2019-05-03T17:44:26.886Z,9.28
2019-05-03T17:46:55.309Z,8.28
2019-05-03T17:49:23.709Z,9.45
2019-05-03T17:51:56.286Z,8.28
2019-05-03T17:54:26.344Z,8.65
2019-05-03T17:56:59.071Z,9.40
2019-05-03T17:59:29.114Z,8.43
2019-05-03T18:02:15.850Z,9.15
2019-05-03T18:05:02.503Z,11.40
2019-05-03T18:07:45.326Z,10.80
2019-05-03T18:10:15.187Z,8.78
2019-05-03T18:12:45.320Z,11.18
2019-05-03T18:15:14.746Z,9.10
2019-05-03T18:17:44.457Z,11.15
2019-05-03T18:20:15.087Z,9.78
2019-05-03T18:22:43.646Z,9.17
2019-05-03T18:25:14.269Z,9.63
2019-05-03T18:27:44.487Z,7.27
2019-05-03T18:30:13.580Z,8.97
2019-05-03T18:32:42.028Z,9.70
2019-05-03T18:35:10.703Z,8.55
2019-05-03T18:37:39.407Z,7.67
2019-05-03T18:40:08.449Z,7.17
2019-05-03T18:42:44.842Z,12.30
2019-05-03T18:45:18.055Z,8.88
2019-05-03T18:47:46.739Z,9.45
2019-05-03T18:50:15.365Z,9.98
2019-05-03T18:52:44.942Z,8.35
2019-05-03T18:55:13.618Z,10.68
2019-05-03T18:57:44.668Z,7.67
2019-05-03T19:00:15.328Z,9.55
2019-05-03T19:02:44.532Z,9.20
2019-05-03T19:05:15.176Z,9.30
2019-05-03T19:07:45.313Z,15.93
2019-05-03T19:10:18.788Z,10.72
2019-05-03T19:13:04.763Z,9.78
2019-05-03T19:15:34.614Z,6.97
2019-05-03T19:18:10.832Z,9.43
2019-05-03T19:20:39.238Z,8.63
2019-05-03T19:23:07.729Z,6.80
2019-05-03T19:25:46.243Z,10.40
2019-05-03T19:28:08.146Z,9.07
2019-05-03T19:30:38.136Z,7.58
2019-05-03T19:33:06.522Z,8.78
2019-05-03T19:35:36.505Z,8.75
2019-05-03T19:38:05.117Z,8.40
2019-05-03T19:40:35.055Z,8.75
2019-05-03T19:43:05.234Z,8.53
2019-05-03T19:45:35.300Z,9.65
2019-05-03T19:48:04.541Z,8.20
2019-05-03T19:50:35.275Z,8.60
2019-05-03T19:53:05.901Z,9.47
2019-05-03T19:55:34.305Z,6.33
2019-05-03T19:58:05.298Z,8.73
2019-05-03T20:00:34.997Z,10.90
2019-05-03T20:03:08.358Z,10.07
2019-05-03T20:05:39.037Z,9.85
2019-05-03T20:08:15.435Z,9.00
2019-05-03T20:10:45.543Z,10.45
2019-05-03T20:13:15.205Z,11.38
2019-05-03T20:15:45.404Z,10.10
2019-05-03T20:18:15.008Z,13.93
2019-05-03T20:20:44.710Z,12.75
2019-05-03T20:23:14.664Z,13.73
2019-05-03T20:25:43.237Z,15.70
2019-05-03T20:28:15.273Z,13.40
2019-05-03T20:30:45.195Z,11.20
2019-05-03T20:33:13.448Z,12.13
2019-05-03T20:35:41.922Z,12.98
2019-05-03T20:38:10.334Z,14.18
2019-05-03T20:40:38.877Z,12.82
2019-05-03T20:43:25.808Z,14.23
2019-05-03T20:46:12.303Z,17.02
2019-05-03T20:48:42.176Z,14.28
2019-05-03T20:51:10.606Z,11.50
2019-05-03T20:53:39.391Z,12.15
2019-05-03T20:56:07.793Z,13.90
2019-05-03T20:58:36.528Z,15.08
2019-05-03T21:01:05.097Z,12.53
2019-05-03T21:03:33.523Z,13.45
2019-05-03T21:06:02.474Z,11.60
2019-05-03T21:08:31.622Z,12.47
2019-05-03T21:11:00.124Z,15.93
2019-05-03T21:13:39.160Z,12.05
2019-05-03T21:16:12.311Z,10.28
2019-05-03T21:18:50.856Z,12.25
2019-05-03T21:21:25.189Z,13.03
2019-05-03T21:23:57.694Z,13.22
2019-05-03T21:26:26.339Z,13.83
2019-05-03T21:28:55.368Z,13.03
2019-05-03T21:31:24.607Z,14.73
2019-05-03T21:33:55.099Z,12.93
2019-05-03T21:36:25.365Z,15.55
2019-05-03T21:38:54.786Z,17.48
2019-05-03T21:41:24.598Z,17.25
2019-05-03T21:43:54.549Z,16.95
2019-05-03T21:46:40.858Z,14.68
2019-05-03T21:49:11.065Z,15.03
2019-05-03T21:51:39.480Z,14.55
2019-05-03T21:54:07.882Z,15.72
2019-05-03T21:56:36.319Z,14.15
2019-05-03T21:59:05.590Z,17.37
2019-05-03T22:01:37.449Z,18.85
2019-05-03T22:06:35.091Z,13.40
2019-05-03T22:09:05.442Z,15.83
2019-05-03T22:11:33.861Z,15.15
2019-05-03T22:14:04.894Z,16.80
2019-05-03T22:16:41.486Z,19.30
2019-05-03T22:19:09.947Z,18.40
2019-05-03T22:21:39.997Z,18.10
2019-05-03T22:24:10.038Z,16.60
2019-05-03T22:26:56.097Z,16.37
2019-05-03T22:29:25.528Z,15.70
2019-05-03T22:31:54.891Z,14.90
2019-05-03T22:34:25.920Z,13.10
2019-05-03T22:36:54.840Z,15.10
2019-05-03T22:39:25.017Z,14.00
2019-05-03T22:41:53.714Z,15.93
2019-05-03T22:44:22.150Z,15.55
2019-05-03T22:46:50.580Z,15.75
2019-05-03T22:49:19.227Z,13.65
2019-05-03T22:51:47.646Z,14.65
2019-05-03T22:54:16.064Z,15.32
2019-05-03T22:56:44.884Z,16.90
2019-05-03T22:59:14.780Z,15.15
2019-05-03T23:01:45.571Z,17.15
2019-05-03T23:04:14.685Z,16.20
2019-05-03T23:06:46.702Z,17.35
2019-05-03T23:09:15.692Z,17.23
2019-05-03T23:11:44.802Z,15.70
2019-05-03T23:14:15.063Z,17.67
2019-05-03T23:16:44.915Z,18.80
2019-05-03T23:19:14.891Z,18.27
2019-05-03T23:21:48.462Z,21.95
2019-05-03T23:24:16.876Z,18.17
2019-05-03T23:26:45.352Z,16.15
2019-05-03T23:29:13.792Z,14.75
2019-05-03T23:31:42.212Z,16.67
2019-05-03T23:34:11.152Z,18.98
2019-05-03T23:36:39.563Z,14.98
2019-05-03T23:39:08.768Z,12.78
2019-05-03T23:41:37.165Z,11.57
2019-05-03T23:44:05.575Z,9.78
2019-05-03T23:46:35.858Z,11.43
2019-05-03T23:49:04.341Z,10.60
2019-05-03T23:51:49.976Z,8.95
2019-05-03T23:54:19.136Z,12.53
2019-05-03T23:56:47.554Z,10.85
2019-05-03T23:59:16.050Z,13.00
